Wise, VA

10:53 AM EST on December 14, 2017 (GMT -0500)
Lonesome Pine

Weather History for KLNP - November, 2014

Change the Weather History Date:

Tuesday, November 11, 2014

  Actual Average Record
Temperature  
Mean Temperature 55 °F -  
Max Temperature 66 °F 51 °F 68 °F (2012)
Min Temperature 44 °F 34 °F 21 °F (1996)
Degree Days  
Heating Degree Days 10    
Growing Degree Days 5 (Base 50)    
Moisture  
Dew Point 31 °F    
Average Humidity 41    
Maximum Humidity 61    
Minimum Humidity 24    
Precipitation  
Precipitation 0.00 in - - ()
Sea Level Pressure  
Sea Level Pressure 30.00 in    
Wind  
Wind Speed 8 mph (SW)    
Max Wind Speed 13 mph    
Max Gust Speed 17 mph    
Visibility 10 miles    
Events      
Averages and records for this station are not official NWS values.
T = Trace of Precipitation, MM = Missing Value Source: NWS Daily Summary

Daily Weather History Graph

Daily Weather History Graph

Search for Another Location

Airport or City:

Trip Planner

Search our weather history database for the weather conditions in past years. The results will help you decide how hot, cold, wet, or windy it might be!

Date:

Astronomy

Nov. 11, 2014 Rise Set
Actual Time 7:04 AM EST 5:23 PM EST
Civil Twilight 6:37 AM EST 5:50 PM EST
Nautical Twilight 6:05 AM EST 6:21 PM EST
Astronomical Twilight 5:35 AM EST 6:52 PM EST
Moon 9:45 PM EST (11/11) 11:09 AM EST (11/11)
Length of Visible Light 11h 13m
Length of Day
10h 18m
Waning Gibbous, 77% of the Moon is Illuminated
Nov 11
Waning Gibbous
Nov 14
Last Quarter
Nov 22
New
Nov 29
First Quarter
Dec 6
Full

Hourly Weather History & Observations

Time (EST) Temp. Windchill Dew Point Humidity Pressure Visibility Wind Dir Wind Speed Gust Speed Precip Events Conditions
12:15 AM 53.6 °F - 30.2 °F 41% 29.99 in 10.0 mi South 9.2 mph 16.1 mph N/A   Clear
12:35 AM 53.6 °F - 28.4 °F 38% 29.98 in 10.0 mi South 5.8 mph - N/A   Clear
12:55 AM 53.6 °F - 28.4 °F 38% 29.98 in 10.0 mi South 8.1 mph - N/A   Clear
1:15 AM 53.6 °F - 28.4 °F 38% 29.98 in 10.0 mi South 10.4 mph - N/A   Clear
1:35 AM 53.6 °F - 28.4 °F 38% 29.98 in 10.0 mi South 11.5 mph 17.3 mph N/A   Clear
1:55 AM 53.6 °F - 28.4 °F 38% 29.98 in 10.0 mi South 9.2 mph - N/A   Clear
2:15 AM 53.6 °F - 26.6 °F 35% 29.99 in 10.0 mi South 10.4 mph - N/A   Clear
2:35 AM 53.6 °F - 26.6 °F 35% 30.00 in 10.0 mi South 10.4 mph - N/A   Clear
2:55 AM 53.6 °F - 26.6 °F 35% 30.00 in 10.0 mi South 8.1 mph - N/A   Clear
3:15 AM 53.6 °F - 26.6 °F 35% 30.00 in 10.0 mi South 6.9 mph - N/A   Clear
3:35 AM 53.6 °F - 26.6 °F 35% 30.01 in 10.0 mi South 5.8 mph - N/A   Clear
3:55 AM 46.4 °F - 30.2 °F 53% 30.03 in 10.0 mi Calm Calm - N/A   Clear
4:15 AM 48.2 °F - 30.2 °F 50% 30.02 in 10.0 mi South 5.8 mph - N/A   Clear
4:35 AM 44.6 °F 40.2 °F 30.2 °F 57% 30.03 in 10.0 mi SSW 8.1 mph - N/A   Clear
4:55 AM 46.4 °F 42.4 °F 32.0 °F 57% 30.03 in 10.0 mi SSW 8.1 mph - N/A   Clear
5:15 AM 44.6 °F 43.1 °F 32.0 °F 61% 30.04 in 10.0 mi SSW 3.5 mph - N/A   Clear
5:35 AM 46.4 °F 43.5 °F 30.2 °F 53% 30.04 in 10.0 mi SSW 5.8 mph - N/A   Clear
5:55 AM 46.4 °F 45.2 °F 30.2 °F 53% 30.04 in 10.0 mi SSW 3.5 mph - N/A   Clear
6:15 AM 44.6 °F - 30.2 °F 57% 30.04 in 10.0 mi Calm Calm - N/A   Clear
6:35 AM 44.6 °F 41.4 °F 30.2 °F 57% 30.05 in 10.0 mi SSW 5.8 mph - N/A   Clear
6:55 AM 44.6 °F 42.2 °F 30.2 °F 57% 30.05 in 10.0 mi SSW 4.6 mph - N/A   Clear
7:15 AM 44.6 °F 43.1 °F 30.2 °F 57% 30.05 in 10.0 mi SW 3.5 mph - N/A   Clear
7:35 AM 44.6 °F 42.2 °F 30.2 °F 57% 30.04 in 10.0 mi SW 4.6 mph - N/A   Clear
7:55 AM 46.4 °F 44.3 °F 30.2 °F 53% 30.04 in 10.0 mi South 4.6 mph - N/A   Clear
8:15 AM 51.8 °F - 30.2 °F 44% 30.05 in 10.0 mi Calm Calm - N/A   Clear
8:35 AM 53.6 °F - 32.0 °F 44% 30.05 in 10.0 mi SSW 3.5 mph - N/A   Clear
8:55 AM 55.4 °F - 32.0 °F 41% 30.04 in 10.0 mi SSW 5.8 mph - N/A   Clear
9:15 AM 55.4 °F - 32.0 °F 41% 30.04 in 10.0 mi SW 3.5 mph - N/A   Clear
9:35 AM 57.2 °F - 32.0 °F 38% 30.04 in 10.0 mi West 4.6 mph - N/A   Clear
9:55 AM 59.0 °F - 30.2 °F 34% 30.03 in 10.0 mi SW 8.1 mph - N/A   Clear
10:15 AM 59.0 °F - 32.0 °F 36% 30.03 in 10.0 mi SW 6.9 mph - N/A   Clear
10:35 AM 60.8 °F - 32.0 °F 34% 30.03 in 10.0 mi WSW 9.2 mph - N/A   Clear
10:55 AM 60.8 °F - 30.2 °F 31% 30.02 in 10.0 mi SW 9.2 mph - N/A   Clear
11:15 AM 62.6 °F - 30.2 °F 30% 30.02 in 10.0 mi WSW 6.9 mph - N/A   Clear
11:35 AM 62.6 °F - 28.4 °F 27% 30.01 in 10.0 mi SW 6.9 mph - N/A   Clear
11:55 AM 64.4 °F - 28.4 °F 26% 30.00 in 10.0 mi SSW 8.1 mph - N/A   Clear
12:15 PM 64.4 °F - 28.4 °F 26% 29.99 in 10.0 mi WSW 10.4 mph - N/A   Clear
12:35 PM 64.4 °F - 28.4 °F 26% 29.98 in 10.0 mi SSW 8.1 mph - N/A   Clear
12:55 PM 64.4 °F - 28.4 °F 26% 29.98 in 10.0 mi WSW 9.2 mph - N/A   Clear
1:15 PM 64.4 °F - 30.2 °F 28% 29.97 in 10.0 mi WSW 9.2 mph - N/A   Clear
1:35 PM 66.2 °F - 30.2 °F 26% 29.96 in 10.0 mi SSW 8.1 mph - N/A   Clear
1:55 PM 64.4 °F - 30.2 °F 28% 29.96 in 10.0 mi WSW 11.5 mph - N/A   Clear
2:15 PM 66.2 °F - 28.4 °F 24% 29.96 in 10.0 mi WSW 12.7 mph - N/A   Clear
2:35 PM 66.2 °F - 30.2 °F 26% 29.95 in 10.0 mi SW 9.2 mph - N/A   Clear
2:55 PM 64.4 °F - 30.2 °F 28% 29.95 in 10.0 mi WSW 10.4 mph - N/A   Clear
3:15 PM 66.2 °F - 30.2 °F 26% 29.96 in 10.0 mi SW 10.4 mph - N/A   Clear
3:35 PM 64.4 °F - 28.4 °F 26% 29.96 in 10.0 mi SW 11.5 mph - N/A   Clear
3:55 PM 64.4 °F - 28.4 °F 26% 29.96 in 10.0 mi WSW 11.5 mph - N/A   Clear
4:15 PM 64.4 °F - 30.2 °F 28% 29.96 in 10.0 mi WSW 10.4 mph - N/A   Clear
4:35 PM 62.6 °F - 28.4 °F 27% 29.96 in 10.0 mi WSW 11.5 mph - N/A   Clear
4:55 PM 60.8 °F - 28.4 °F 29% 29.97 in 10.0 mi WSW 11.5 mph 16.1 mph N/A   Clear
5:15 PM 59.0 °F - 30.2 °F 34% 29.98 in 10.0 mi SW 9.2 mph - N/A   Clear
5:35 PM 55.4 °F - 30.2 °F 38% 29.97 in 10.0 mi SSW 6.9 mph - N/A   Clear
5:55 PM 55.4 °F - 28.4 °F 36% 29.98 in 10.0 mi WSW 5.8 mph - N/A   Clear
6:15 PM 53.6 °F - 30.2 °F 41% 29.98 in 10.0 mi SW 8.1 mph - N/A   Clear
6:35 PM 53.6 °F - 32.0 °F 44% 29.98 in 10.0 mi SSW 6.9 mph - N/A   Clear
6:55 PM 55.4 °F - 30.2 °F 38% 29.98 in 10.0 mi South 6.9 mph - N/A   Clear
7:15 PM 53.6 °F - 32.0 °F 44% 29.99 in 10.0 mi WSW 6.9 mph - N/A   Clear
7:35 PM 51.8 °F - 32.0 °F 47% 29.98 in 10.0 mi SSW 4.6 mph - N/A   Clear
7:55 PM 51.8 °F - 32.0 °F 47% 29.98 in 10.0 mi SSW 5.8 mph - N/A   Clear
8:15 PM 51.8 °F - 32.0 °F 47% 29.98 in 10.0 mi SW 8.1 mph - N/A   Clear
8:35 PM 51.8 °F - 33.8 °F 50% 29.98 in 10.0 mi SW 8.1 mph - N/A   Clear
8:55 PM 50.0 °F - 33.8 °F 54% 29.98 in 10.0 mi SW 9.2 mph - N/A   Clear
9:15 PM 51.8 °F - 35.6 °F 54% 29.98 in 10.0 mi SW 6.9 mph - N/A   Clear
9:35 PM 51.8 °F - 35.6 °F 54% 29.98 in 10.0 mi SW 6.9 mph - N/A   Clear
9:55 PM 51.8 °F - 35.6 °F 54% 29.98 in 10.0 mi WSW 5.8 mph - N/A   Mostly Cloudy
10:15 PM 51.8 °F - 37.4 °F 58% 29.98 in 10.0 mi SW 6.9 mph - N/A   Overcast
10:35 PM 53.6 °F - 37.4 °F 54% 30.00 in 10.0 mi SW 6.9 mph - N/A   Overcast
10:55 PM 55.4 °F - 37.4 °F 51% 29.99 in 10.0 mi SW 9.2 mph - N/A   Overcast
11:15 PM 55.4 °F - 37.4 °F 51% 29.98 in 10.0 mi SW 10.4 mph - N/A   Overcast
11:35 PM 53.6 °F - 37.4 °F 54% 29.99 in 10.0 mi WSW 9.2 mph - N/A   Scattered Clouds
11:55 PM 53.6 °F - 39.2 °F 58% 29.98 in 10.0 mi SW 6.9 mph - N/A   Mostly Cloudy